Estación Meteorológica Peña el Pijo (Robertgarden) [ 02/03/23 03:03:10 CET ]

Fecha Hora Presion(HPa) Temp (°C) Humedad % Rocio (°C) Viento ( m/s) Direccion Lluvia 1Hora(mm) Lluvia 24H(mm) LLuvia Total(mm)
2010-Jul-08 01:01:16 1017.100 19.9 57 11.1         125.87
2010-Jul-08 02:01:11 1017.300 19.0 61 11.3         125.87
2010-Jul-08 03:01:45 1016.800 17.6 65 10.9         125.87
2010-Jul-08 04:03:12 1016.200 17.0 65 10.3         125.87
2010-Jul-08 05:01:11 1015.600 17.1 55 7.9         125.87
2010-Jul-08 06:08:07 1015.200 - - - - SE     125.87
2010-Jul-08 07:08:10 1015.200 - - - - SE     125.87
2010-Jul-08 08:08:09 1015.600 - - - - SE     125.87
2010-Jul-08 09:08:06 1016.000 - - - - SE     125.87
2010-Jul-08 10:01:13 1016.100 24.3 48 12.6         125.87
2010-Jul-08 11:01:13 1015.800 32.4 22 7.8         125.87
2010-Jul-08 12:01:14 1015.600 35.5 17 6.2         125.87
2010-Jul-08 13:01:12 1015.700 34.5 15 3.4         125.87
2010-Jul-08 14:01:17 1015.700 35.3 14 3.0 1.9 ENE     125.87
2010-Jul-08 15:01:14 1015.700 36.9 15 5.3         125.87
2010-Jul-08 16:01:16 1015.700 37.4 15 5.7 1.1 SW     125.87
2010-Jul-08 17:01:11 1015.600 36.5 15 5.0         125.87
2010-Jul-08 18:01:12 1014.700 33.3 16 3.4         125.87
2010-Jul-08 19:01:16 1014.900 34.6 15 3.5         125.87
2010-Jul-08 20:01:13 1014.700 31.4 18 3.9         125.87
2010-Jul-08 21:01:13 1015.500 29.1 21 4.5         125.87
2010-Jul-08 22:08:10 1015.800 - - - - NE     125.87
2010-Jul-08 23:08:08 1016.400 - - - - NE     125.87

Temperatura Máxima:37°    Temperatura Mínima:
Presión Máxima:1017.300 Hpa    Presión Mínima:1014.700 Hpa


Volver